Time;durP1;ratioP1;P1;durP2;ratioP2;P2;SDS_P1;SDS_P2;PMS_P1;PMS_P2;Temp;Humidity;BMP_temperature;BMP_pressure;BME280_temperature;BME280_humidity;BME280_pressure;Samples;Min_cycle;Max_cycle;Signal;HPM_P1;HPM_P2
2023/09/21 00:01:18;;;;;;;5.97;0.80;;;18.20;99.90;;;;;;5066587;28;20040;-84
2023/09/21 00:03:45;;;;;;;2.90;0.60;;;18.30;99.90;;;;;;5066608;28;20033;-84
2023/09/21 00:06:13;;;;;;;9.93;1.45;;;18.20;99.90;;;;;;5068233;28;20214;-83
2023/09/21 00:08:38;;;;;;;3.53;1.00;;;18.30;99.90;;;;;;5070616;28;20627;-83
2023/09/21 00:11:04;;;;;;;5.25;1.15;;;18.20;99.90;;;;;;5071904;28;20033;-85
2023/09/21 00:13:31;;;;;;;2.67;0.80;;;18.20;99.90;;;;;;5071617;28;20016;-84
2023/09/21 00:16:01;;;;;;;4.78;1.02;;;18.20;99.90;;;;;;5071450;28;20093;-83
2023/09/21 00:18:29;;;;;;;2.60;0.55;;;18.20;99.90;;;;;;5071751;28;20043;-83
2023/09/21 00:20:55;;;;;;;4.38;0.60;;;18.20;99.90;;;;;;5071565;28;20578;-85
2023/09/21 00:23:25;;;;;;;2.85;0.88;;;18.10;99.90;;;;;;5070278;28;20401;-84
2023/09/21 00:25:57;;;;;;;3.40;0.80;;;18.10;99.90;;;;;;5070102;28;20035;-82
2023/09/21 00:28:28;;;;;;;2.40;0.60;;;18.00;99.90;;;;;;5070179;28;20036;-86
2023/09/21 00:30:57;;;;;;;2.67;0.85;;;18.00;99.90;;;;;;5069945;28;20111;-84
2023/09/21 00:33:27;;;;;;;11.23;1.73;;;17.90;99.90;;;;;;5069838;28;20513;-85
2023/09/21 00:35:53;;;;;;;5.05;0.77;;;17.80;99.90;;;;;;5071646;28;20624;-85
2023/09/21 00:38:20;;;;;;;3.72;0.63;;;17.80;99.90;;;;;;5070479;28;20028;-85
2023/09/21 00:40:47;;;;;;;3.03;0.65;;;17.80;99.90;;;;;;5070099;28;20044;-85
2023/09/21 00:43:24;;;;;;;6.72;1.23;;;17.80;99.90;;;;;;5069937;28;20048;-83
2023/09/21 00:45:54;;;;;;;9.95;1.10;;;17.80;99.90;;;;;;5071590;28;20047;-85
2023/09/21 00:48:25;;;;;;;7.55;1.00;;;17.80;99.90;;;;;;5070224;28;20031;-85
2023/09/21 00:50:54;;;;;;;9.60;0.80;;;17.70;99.90;;;;;;5072053;28;20032;-86
2023/09/21 00:53:21;;;;;;;4.93;0.80;;;17.70;99.90;;;;;;5071809;28;20099;-86
2023/09/21 00:55:57;;;;;;;9.23;1.20;;;17.70;99.90;;;;;;5071190;28;20063;-87
2023/09/21 00:58:25;;;;;;;6.80;0.80;;;17.70;99.90;;;;;;5071407;28;20104;-86
2023/09/21 01:00:54;;;;;;;1.73;0.90;;;17.70;99.90;;;;;;5069785;28;20032;-84
2023/09/21 01:03:22;;;;;;;4.60;0.90;;;17.70;99.90;;;;;;5069956;28;20028;-82
2023/09/21 01:05:50;;;;;;;4.95;0.75;;;17.70;99.90;;;;;;5069794;28;20035;-86
2023/09/21 01:08:22;;;;;;;9.85;0.93;;;17.80;99.90;;;;;;5069643;28;20032;-84
2023/09/21 01:10:49;;;;;;;6.38;0.80;;;17.80;99.90;;;;;;5069436;28;20029;-86
2023/09/21 01:13:23;;;;;;;5.47;0.85;;;17.90;99.90;;;;;;5070673;28;20013;-82
2023/09/21 01:16:03;;;;;;;4.55;0.68;;;17.80;99.90;;;;;;5070849;28;20081;-86
2023/09/21 01:18:29;;;;;;;5.90;0.85;;;17.90;99.90;;;;;;5070071;28;20040;-88
2023/09/21 01:21:04;;;;;;;4.90;1.00;;;17.90;99.90;;;;;;5069939;28;20052;-86
2023/09/21 01:23:45;;;;;;;2.35;0.60;;;17.80;99.90;;;;;;5070916;28;20031;-86
2023/09/21 01:26:18;;;;;;;7.35;0.95;;;17.80;99.90;;;;;;5069767;28;20029;-87
2023/09/21 01:28:47;;;;;;;1.48;0.60;;;17.80;99.90;;;;;;5069389;28;20050;-84
2023/09/21 01:31:14;;;;;;;3.80;0.82;;;17.70;99.90;;;;;;5069388;28;20067;-87
2023/09/21 01:33:42;;;;;;;4.10;0.60;;;17.70;99.90;;;;;;5068847;28;20054;-87
2023/09/21 01:36:08;;;;;;;6.35;1.05;;;17.70;99.90;;;;;;5069723;28;20405;-86
2023/09/21 01:38:34;;;;;;;3.70;0.70;;;17.80;99.90;;;;;;5070083;28;20032;-86
2023/09/21 01:41:00;;;;;;;4.32;0.90;;;17.70;99.90;;;;;;5070466;28;20606;-87
2023/09/21 01:43:26;;;;;;;10.10;1.13;;;17.70;99.90;;;;;;5068835;28;20046;-84
2023/09/21 01:45:52;;;;;;;10.95;0.93;;;17.60;99.90;;;;;;5070265;28;20398;-85
2023/09/21 01:48:20;;;;;;;9.43;1.10;;;17.60;99.90;;;;;;5070573;28;20021;-87
2023/09/21 01:50:50;;;;;;;8.73;0.68;;;17.60;99.90;;;;;;5069149;28;20031;-86
2023/09/21 01:53:18;;;;;;;7.85;1.00;;;17.60;99.90;;;;;;5069287;28;20149;-85
2023/09/21 01:55:47;;;;;;;2.42;0.98;;;17.50;99.90;;;;;;5070258;28;20033;-85
2023/09/21 01:58:14;;;;;;;1.63;0.60;;;17.60;99.90;;;;;;5069176;28;20125;-86
2023/09/21 02:00:42;;;;;;;2.53;0.70;;;17.50;99.90;;;;;;5068882;28;20032;-88
2023/09/21 02:03:14;;;;;;;3.67;0.90;;;17.50;99.90;;;;;;5070135;28;20043;-85
2023/09/21 02:05:41;;;;;;;7.35;0.93;;;17.50;99.90;;;;;;5070254;28;20059;-85
2023/09/21 02:08:09;;;;;;;4.43;1.02;;;17.60;99.90;;;;;;5068448;28;20033;-84
2023/09/21 02:10:36;;;;;;;2.63;1.05;;;17.50;99.90;;;;;;5069701;28;20098;-83
2023/09/21 02:13:05;;;;;;;4.93;0.88;;;17.50;99.90;;;;;;5068681;28;20043;-86
2023/09/21 02:15:34;;;;;;;2.17;0.70;;;17.50;99.90;;;;;;5068519;28;20140;-85
2023/09/21 02:18:02;;;;;;;8.68;0.95;;;17.40;99.90;;;;;;5069831;28;20144;-86
2023/09/21 02:20:31;;;;;;;2.67;1.33;;;17.40;99.90;;;;;;5067998;28;20041;-83
2023/09/21 02:23:00;;;;;;;2.67;0.60;;;17.40;99.90;;;;;;5069700;28;20115;-85
2023/09/21 02:25:27;;;;;;;5.60;0.90;;;17.30;99.90;;;;;;5068070;28;20024;-83
2023/09/21 02:27:53;;;;;;;3.65;0.88;;;17.30;99.90;;;;;;5070045;28;20043;-85
2023/09/21 02:30:21;;;;;;;3.08;0.68;;;17.30;99.90;;;;;;5069490;28;20025;-86
2023/09/21 02:32:49;;;;;;;2.90;0.50;;;17.30;99.90;;;;;;5068251;28;20028;-84
2023/09/21 02:35:16;;;;;;;2.88;0.60;;;17.20;99.90;;;;;;5067580;28;20489;-85
2023/09/21 02:37:46;;;;;;;3.20;0.60;;;17.20;99.90;;;;;;5069251;28;20016;-83
2023/09/21 02:40:16;;;;;;;2.10;0.70;;;17.10;99.90;;;;;;5067941;28;20042;-84
2023/09/21 02:42:46;;;;;;;4.32;1.25;;;17.10;99.90;;;;;;5068227;28;20036;-86
2023/09/21 02:45:13;;;;;;;4.57;0.90;;;17.20;99.90;;;;;;5068021;28;20044;-83
2023/09/21 02:47:42;;;;;;;7.63;1.20;;;17.20;99.90;;;;;;5068999;28;20033;-86
2023/09/21 02:50:31;;;;;;;7.53;1.08;;;17.20;99.90;;;;;;5068650;28;20032;-86
2023/09/21 02:52:57;;;;;;;2.88;0.93;;;17.30;99.90;;;;;;5068745;28;20035;-86
2023/09/21 02:55:26;;;;;;;2.65;0.77;;;17.50;99.90;;;;;;5067915;28;20025;-82
2023/09/21 02:57:58;;;;;;;2.90;0.63;;;17.70;99.90;;;;;;5069015;28;20021;-84
2023/09/21 03:00:26;;;;;;;5.90;1.08;;;17.70;99.90;;;;;;5067824;28;20448;-85
2023/09/21 03:02:55;;;;;;;5.40;1.25;;;17.90;99.90;;;;;;5067828;28;20538;-83
2023/09/21 03:05:21;;;;;;;5.40;0.70;;;17.90;99.90;;;;;;5068974;28;20021;-84
2023/09/21 03:07:48;;;;;;;9.25;2.33;;;17.80;99.90;;;;;;5068854;28;20493;-85
2023/09/21 03:10:16;;;;;;;8.35;1.00;;;17.80;99.90;;;;;;5068895;28;20107;-85
2023/09/21 03:12:42;;;;;;;9.00;1.20;;;17.80;99.90;;;;;;5068231;28;20098;-87
2023/09/21 03:15:14;;;;;;;2.17;0.70;;;17.70;99.90;;;;;;5069862;28;20051;-87
2023/09/21 03:17:44;;;;;;;5.22;0.90;;;17.60;99.90;;;;;;5067979;28;20052;-88
2023/09/21 03:20:34;;;;;;;3.58;0.90;;;17.50;99.90;;;;;;5068294;28;20029;-86
2023/09/21 03:23:05;;;;;;;4.75;1.40;;;17.50;99.90;;;;;;5069569;28;20067;-86
2023/09/21 03:25:33;;;;;;;5.72;1.00;;;17.40;99.90;;;;;;5068119;28;20529;-87
2023/09/21 03:28:13;;;;;;;5.70;1.00;;;17.40;99.90;;;;;;5068023;28;20519;-86
2023/09/21 03:30:45;;;;;;;6.55;1.00;;;17.30;99.90;;;;;;5067557;28;20033;-84
2023/09/21 03:33:14;;;;;;;8.55;1.08;;;17.20;99.90;;;;;;5069266;28;20016;-87
2023/09/21 03:35:40;;;;;;;4.28;1.40;;;17.00;99.90;;;;;;5069052;28;20445;-86
2023/09/21 03:38:10;;;;;;;3.58;1.20;;;17.00;99.90;;;;;;5069131;28;20511;-86
2023/09/21 03:40:36;;;;;;;6.05;1.23;;;16.90;99.90;;;;;;5069314;28;20036;-86
2023/09/21 03:43:02;;;;;;;9.57;1.88;;;16.90;99.90;;;;;;5071090;28;20497;-85
2023/09/21 03:45:28;;;;;;;7.40;1.55;;;16.80;99.90;;;;;;5071537;28;20032;-87
2023/09/21 03:47:54;;;;;;;7.75;1.65;;;16.80;99.90;;;;;;5071831;28;20102;-85
2023/09/21 03:50:27;;;;;;;6.50;1.35;;;16.70;99.90;;;;;;5071414;28;20037;-85
2023/09/21 03:52:53;;;;;;;4.90;1.25;;;16.70;99.90;;;;;;5072440;28;20052;-85
2023/09/21 03:55:20;;;;;;;5.55;1.45;;;16.60;99.90;;;;;;5072818;28;20507;-87
2023/09/21 03:57:46;;;;;;;6.90;1.50;;;16.50;99.90;;;;;;5073087;28;20044;-86
2023/09/21 04:00:39;;;;;;;8.25;1.70;;;16.50;99.90;;;;;;5072971;28;20416;-86
2023/09/21 04:03:08;;;;;;;5.82;1.02;;;16.40;99.90;;;;;;5072314;28;20102;-87
2023/09/21 04:05:36;;;;;;;5.18;1.15;;;16.30;99.90;;;;;;5071749;28;20047;-87
2023/09/21 04:08:03;;;;;;;7.20;1.65;;;16.20;99.90;;;;;;5072803;28;20020;-88
2023/09/21 04:10:30;;;;;;;4.57;1.20;;;16.10;99.90;;;;;;5072216;28;20032;-86
2023/09/21 04:12:56;;;;;;;8.18;2.35;;;16.10;99.90;;;;;;5072283;28;20078;-82
2023/09/21 04:15:26;;;;;;;5.22;1.55;;;16.00;99.90;;;;;;5070807;28;20139;-84
2023/09/21 04:17:52;;;;;;;8.65;1.70;;;16.00;99.90;;;;;;5070686;28;20063;-81
2023/09/21 04:20:19;;;;;;;7.32;1.33;;;16.00;99.90;;;;;;5071271;28;20036;-85
2023/09/21 04:22:47;;;;;;;7.72;1.15;;;16.20;99.90;;;;;;5070094;28;20041;-87
2023/09/21 04:25:14;;;;;;;7.88;1.58;;;16.50;99.90;;;;;;5070425;28;20044;-85
2023/09/21 04:27:41;;;;;;;15.73;1.58;;;16.70;99.90;;;;;;5071582;28;20109;-83
2023/09/21 04:30:09;;;;;;;4.28;1.00;;;16.90;99.90;;;;;;5071012;28;20562;-84
2023/09/21 04:32:38;;;;;;;9.35;1.48;;;17.10;99.90;;;;;;5069878;28;20037;-85
2023/09/21 04:35:07;;;;;;;7.80;1.35;;;17.20;99.90;;;;;;5082230;28;20370;-83
2023/09/21 04:37:34;;;;;;;4.28;0.80;;;17.40;99.90;;;;;;5108838;28;20120;-83
2023/09/21 04:40:04;;;;;;;10.20;1.55;;;17.50;99.90;;;;;;5111997;28;20026;-85
2023/09/21 04:42:31;;;;;;;9.55;1.10;;;17.80;99.90;;;;;;5112021;28;20039;-84
2023/09/21 04:45:00;;;;;;;3.88;1.10;;;18.00;99.90;;;;;;5110631;28;20484;-87
2023/09/21 04:47:27;;;;;;;13.23;1.35;;;18.20;99.90;;;;;;5111730;28;20400;-84
2023/09/21 04:49:54;;;;;;;5.35;1.08;;;18.20;99.90;;;;;;5111936;28;20104;-86
2023/09/21 04:52:21;;;;;;;5.90;1.27;;;18.20;99.90;;;;;;5111585;28;20030;-86
2023/09/21 04:54:51;;;;;;;3.10;1.00;;;18.20;99.90;;;;;;5111497;28;20108;-84
2023/09/21 04:57:18;;;;;;;10.32;1.17;;;18.20;99.90;;;;;;5110555;28;20031;-85
2023/09/21 04:59:44;;;;;;;4.03;1.40;;;18.30;99.90;;;;;;5111371;28;20067;-84
2023/09/21 05:02:10;;;;;;;6.82;1.85;;;18.40;99.90;;;;;;5110616;28;20063;-86
2023/09/21 05:04:36;;;;;;;3.58;0.90;;;18.30;99.90;;;;;;5110445;28;20080;-83
2023/09/21 05:07:01;;;;;;;2.88;1.00;;;18.40;99.90;;;;;;5110264;28;20027;-86
2023/09/21 05:09:27;;;;;;;6.40;1.38;;;18.40;99.90;;;;;;5111233;28;20020;-85
2023/09/21 05:11:53;;;;;;;5.13;1.13;;;18.40;99.90;;;;;;5111470;28;20743;-84
2023/09/21 05:14:21;;;;;;;2.55;0.80;;;18.50;99.90;;;;;;5111276;28;20019;-85
2023/09/21 05:16:47;;;;;;;3.38;0.88;;;18.50;99.90;;;;;;5109685;28;20572;-86
2023/09/21 05:19:14;;;;;;;3.45;0.80;;;18.60;99.90;;;;;;5111578;28;20012;-83
2023/09/21 05:21:40;;;;;;;8.68;1.50;;;18.70;99.90;;;;;;5110613;28;20105;-84
2023/09/21 05:24:07;;;;;;;4.07;0.85;;;18.70;99.90;;;;;;5104330;28;20016;-81
2023/09/21 05:26:33;;;;;;;6.40;1.05;;;18.60;99.90;;;;;;5090305;28;20052;-86
2023/09/21 05:28:58;;;;;;;6.50;0.80;;;18.70;99.90;;;;;;5090325;28;20066;-85
2023/09/21 05:31:24;;;;;;;13.15;1.02;;;18.80;99.90;;;;;;5088776;28;20028;-81
2023/09/21 05:33:49;;;;;;;4.57;1.08;;;18.90;99.90;;;;;;5088742;28;20114;-82
2023/09/21 05:36:15;;;;;;;6.35;1.30;;;19.10;99.90;;;;;;5089266;28;20111;-82
2023/09/21 05:38:41;;;;;;;3.70;1.10;;;19.30;99.90;;;;;;5087108;28;20455;-82
2023/09/21 05:41:07;;;;;;;1.90;0.70;;;19.50;99.90;;;;;;5071615;28;20047;-82
2023/09/21 05:43:32;;;;;;;2.40;0.70;;;19.80;99.90;;;;;;5070059;28;20447;-83
2023/09/21 05:45:58;;;;;;;3.03;0.73;;;20.00;99.90;;;;;;5068508;28;20024;-82
2023/09/21 05:48:24;;;;;;;3.75;0.70;;;20.10;99.90;;;;;;5069654;28;20103;-81
2023/09/21 05:50:50;;;;;;;3.88;1.55;;;20.30;99.90;;;;;;5069873;28;20492;-80
2023/09/21 05:53:16;;;;;;;2.97;0.90;;;20.40;99.90;;;;;;5069615;28;20029;-81
2023/09/21 05:55:45;;;;;;;4.82;1.10;;;20.30;99.90;;;;;;5069859;28;20035;-82
2023/09/21 05:58:11;;;;;;;2.35;0.70;;;20.20;99.90;;;;;;5069785;28;20378;-81
2023/09/21 06:00:37;;;;;;;3.65;0.70;;;20.20;99.90;;;;;;5069751;28;20059;-81
2023/09/21 06:03:02;;;;;;;7.40;0.90;;;20.30;99.90;;;;;;5068396;28;20064;-79
2023/09/21 06:05:31;;;;;;;12.15;1.02;;;20.30;99.90;;;;;;5084729;28;20024;-79
2023/09/21 06:07:57;;;;;;;2.42;0.93;;;20.30;99.90;;;;;;5085245;28;20048;-81
2023/09/21 06:10:24;;;;;;;4.90;1.30;;;20.40;99.90;;;;;;5088377;28;20039;-81
2023/09/21 06:12:50;;;;;;;5.53;1.60;;;20.50;99.70;;;;;;5096787;28;20050;-80
2023/09/21 06:15:17;;;;;;;8.35;1.50;;;20.70;99.10;;;;;;5104157;27;20032;-80
2023/09/21 06:17:43;;;;;;;5.50;1.17;;;20.90;98.50;;;;;;5109845;27;20047;-79
2023/09/21 06:20:09;;;;;;;5.10;1.13;;;21.10;98.00;;;;;;5108602;28;20042;-81
2023/09/21 06:22:37;;;;;;;4.90;2.10;;;21.50;97.80;;;;;;5109772;28;20118;-82
2023/09/21 06:25:04;;;;;;;4.82;1.60;;;21.70;96.40;;;;;;5109997;28;20034;-84
2023/09/21 06:27:30;;;;;;;4.57;1.48;;;21.80;95.30;;;;;;5109570;28;20057;-81
2023/09/21 06:29:56;;;;;;;6.10;2.13;;;21.80;95.30;;;;;;5110025;28;20051;-83
2023/09/21 06:32:23;;;;;;;10.68;1.77;;;21.90;94.00;;;;;;5109594;28;20081;-84
2023/09/21 06:34:51;;;;;;;6.97;2.20;;;22.00;93.40;;;;;;5109409;28;20059;-83
2023/09/21 06:37:21;;;;;;;6.05;2.28;;;22.20;93.10;;;;;;5110070;28;20404;-83
2023/09/21 06:39:46;;;;;;;2.88;1.40;;;22.20;92.50;;;;;;5109754;28;20028;-84
2023/09/21 06:42:15;;;;;;;5.43;1.20;;;22.40;92.10;;;;;;5108354;28;20086;-79
2023/09/21 06:44:41;;;;;;;2.70;1.20;;;22.80;91.00;;;;;;5108627;28;20055;-81
2023/09/21 06:47:06;;;;;;;4.55;1.33;;;23.00;89.70;;;;;;5110089;28;20055;-79
2023/09/21 06:49:34;;;;;;;4.63;1.20;;;23.40;88.20;;;;;;5109803;28;20084;-81
2023/09/21 06:52:00;;;;;;;4.00;1.00;;;23.80;86.00;;;;;;5109671;28;20020;-81
2023/09/21 06:54:26;;;;;;;3.08;1.15;;;24.00;84.30;;;;;;5109665;28;20523;-79
2023/09/21 06:56:52;;;;;;;4.60;1.10;;;24.70;82.80;;;;;;5108283;28;20024;-80
2023/09/21 06:59:17;;;;;;;8.48;1.17;;;25.70;77.20;;;;;;5109588;28;20030;-80
2023/09/21 07:01:43;;;;;;;2.08;0.90;;;26.10;72.70;;;;;;5109242;28;20039;-80
2023/09/21 07:04:09;;;;;;;5.78;0.90;;;26.60;70.60;;;;;;5107950;28;20456;-82
2023/09/21 07:06:35;;;;;;;5.47;1.40;;;27.60;67.40;;;;;;5109411;28;20032;-81
2023/09/21 07:09:04;;;;;;;7.38;1.50;;;28.10;63.30;;;;;;5109382;28;20023;-82
2023/09/21 07:11:29;;;;;;;3.58;1.10;;;28.20;59.70;;;;;;5107963;28;20084;-82
2023/09/21 07:13:55;;;;;;;3.92;1.45;;;28.20;59.40;;;;;;5109300;28;20529;-81
2023/09/21 07:16:22;;;;;;;8.63;1.42;;;28.70;58.70;;;;;;5108345;28;20052;-81
2023/09/21 07:18:48;;;;;;;34.03;2.03;;;29.10;56.60;;;;;;5113731;28;20483;-82
2023/09/21 07:21:14;;;;;;;4.07;1.50;;;29.60;55.50;;;;;;5111942;28;20081;-82
2023/09/21 07:26:24;;;;;;;7.25;1.50;;;28.70;55.10;;;;;;5113749;28;20037;-79
2023/09/21 07:28:49;;;;;;;5.15;1.63;;;27.90;56.10;;;;;;5113348;28;20019;-81
2023/09/21 07:31:15;;;;;;;2.35;1.00;;;27.00;57.90;;;;;;5113501;28;20026;-80
2023/09/21 07:33:41;;;;;;;4.75;1.63;;;26.50;59.10;;;;;;5112033;28;20066;-80
2023/09/21 07:36:08;;;;;;;3.97;1.15;;;26.20;60.30;;;;;;5112347;28;20032;-80
2023/09/21 07:38:34;;;;;;;2.22;1.10;;;26.00;61.80;;;;;;5113674;28;20531;-80
2023/09/21 07:41:00;;;;;;;6.90;1.13;;;25.70;62.10;;;;;;5111948;28;20446;-82
2023/09/21 07:43:26;;;;;;;5.70;1.00;;;25.50;62.80;;;;;;5111729;28;20036;-82
2023/09/21 07:45:53;;;;;;;8.43;1.20;;;25.50;63.20;;;;;;5113169;28;20069;-80
2023/09/21 07:48:20;;;;;;;3.97;1.10;;;25.60;63.20;;;;;;5111871;28;20034;-83
2023/09/21 07:50:46;;;;;;;3.83;1.08;;;25.30;62.80;;;;;;5111623;28;20062;-82
2023/09/21 07:53:12;;;;;;;4.72;1.30;;;25.10;64.20;;;;;;5113208;28;20023;-81
2023/09/21 07:55:37;;;;;;;7.80;1.10;;;24.90;65.60;;;;;;5113267;28;20403;-81
2023/09/21 07:58:04;;;;;;;3.90;0.80;;;24.90;65.70;;;;;;5108887;28;20034;-80
2023/09/21 08:00:29;;;;;;;6.70;1.20;;;24.90;65.80;;;;;;5091065;28;20035;-81
2023/09/21 08:02:55;;;;;;;6.20;1.45;;;25.00;66.10;;;;;;5092171;28;20350;-83
2023/09/21 08:05:20;;;;;;;6.13;1.60;;;25.00;65.70;;;;;;5090796;28;20031;-82
2023/09/21 08:07:48;;;;;;;4.72;1.08;;;25.10;66.60;;;;;;5091973;28;20034;-81
2023/09/21 08:10:15;;;;;;;5.05;1.17;;;25.20;66.40;;;;;;5090435;28;20420;-81
2023/09/21 08:12:41;;;;;;;7.90;1.35;;;25.10;66.00;;;;;;5092382;28;20047;-81
2023/09/21 08:15:10;;;;;;;2.90;0.85;;;25.10;66.00;;;;;;5091669;28;20476;-82
2023/09/21 08:17:36;;;;;;;4.35;1.02;;;25.00;66.70;;;;;;5091403;28;20071;-81
2023/09/21 08:20:09;;;;;;;16.98;1.50;;;24.90;66.00;;;;;;5090583;28;20382;-81
2023/09/21 08:22:35;;;;;;;5.72;1.20;;;24.60;67.00;;;;;;5090310;28;20114;-82
2023/09/21 08:25:01;;;;;;;11.48;1.73;;;24.50;67.70;;;;;;5091673;28;20530;-82
2023/09/21 08:27:29;;;;;;;6.20;1.50;;;24.30;70.20;;;;;;5091214;28;20028;-82
2023/09/21 08:29:57;;;;;;;4.72;1.05;;;24.30;70.00;;;;;;5091668;28;20477;-80
2023/09/21 08:32:24;;;;;;;5.18;2.00;;;24.20;70.40;;;;;;5090420;28;20032;-82
2023/09/21 08:34:49;;;;;;;4.75;1.38;;;24.00;71.60;;;;;;5090340;28;20098;-81
2023/09/21 08:37:15;;;;;;;3.75;1.40;;;23.80;72.40;;;;;;5091077;28;20500;-81
2023/09/21 08:39:40;;;;;;;4.80;1.58;;;23.60;73.20;;;;;;5091295;28;20538;-79
2023/09/21 08:42:06;;;;;;;4.82;1.27;;;23.40;74.40;;;;;;5091544;28;20036;-81
2023/09/21 08:44:32;;;;;;;6.10;1.30;;;23.30;75.40;;;;;;5091079;28;20024;-81
2023/09/21 08:47:00;;;;;;;5.55;1.25;;;23.10;76.20;;;;;;5091206;28;20480;-82
2023/09/21 08:49:28;;;;;;;7.70;1.50;;;23.10;78.10;;;;;;5091098;28;20020;-80
2023/09/21 08:51:56;;;;;;;10.07;1.80;;;23.00;78.90;;;;;;5089534;28;20020;-79
2023/09/21 08:54:23;;;;;;;6.68;1.40;;;22.90;79.40;;;;;;5089665;28;20028;-81
2023/09/21 08:56:55;;;;;;;4.47;1.08;;;22.80;80.50;;;;;;5090944;28;20032;-81
2023/09/21 08:59:20;;;;;;;6.25;2.15;;;22.80;80.10;;;;;;5089715;28;20490;-81
2023/09/21 09:01:46;;;;;;;8.73;1.45;;;22.70;80.50;;;;;;5089727;28;20131;-81
2023/09/21 09:04:14;;;;;;;9.80;1.92;;;22.60;81.60;;;;;;5089322;28;20396;-82
2023/09/21 09:06:40;;;;;;;11.38;2.40;;;22.60;81.90;;;;;;5089626;28;20031;-81
2023/09/21 09:09:07;;;;;;;5.65;1.70;;;22.50;82.60;;;;;;5090898;28;20028;-81
2023/09/21 09:11:34;;;;;;;9.32;2.25;;;22.40;83.70;;;;;;5089606;28;20063;-83
2023/09/21 09:14:01;;;;;;;9.45;1.30;;;22.40;85.60;;;;;;5089366;28;20067;-83
2023/09/21 09:16:30;;;;;;;3.72;1.42;;;22.60;85.70;;;;;;5090687;28;20040;-82
2023/09/21 09:18:58;;;;;;;8.25;1.50;;;22.90;86.40;;;;;;5090185;28;20032;-82
2023/09/21 09:21:25;;;;;;;13.95;1.92;;;23.00;85.00;;;;;;5090354;28;20044;-83
2023/09/21 09:23:50;;;;;;;6.90;1.55;;;23.00;83.80;;;;;;5090512;28;20008;-82
2023/09/21 09:26:18;;;;;;;8.75;1.95;;;22.90;84.80;;;;;;5089295;28;20088;-82
2023/09/21 09:28:44;;;;;;;8.85;1.73;;;23.00;85.40;;;;;;5088762;28;20028;-81
2023/09/21 09:31:11;;;;;;;8.98;2.15;;;22.90;84.20;;;;;;5089135;28;20097;-83
2023/09/21 09:33:38;;;;;;;4.70;1.30;;;23.00;85.60;;;;;;5089132;28;20067;-83
2023/09/21 09:36:04;;;;;;;7.10;1.50;;;23.30;85.50;;;;;;5090105;28;20420;-81
2023/09/21 09:38:33;;;;;;;4.32;1.50;;;23.70;83.00;;;;;;5089872;28;20114;-82
2023/09/21 09:41:04;;;;;;;2.13;1.10;;;24.20;81.70;;;;;;5088495;28;20036;-83
2023/09/21 09:43:31;;;;;;;9.10;1.20;;;24.50;79.50;;;;;;5088907;28;20032;-82
2023/09/21 09:46:03;;;;;;;6.97;1.73;;;24.60;79.30;;;;;;5090053;28;20027;-81
2023/09/21 09:48:32;;;;;;;3.45;1.27;;;24.70;78.30;;;;;;5088761;28;20399;-83
2023/09/21 09:51:09;;;;;;;4.15;2.00;;;24.60;77.80;;;;;;5090152;28;20020;-83
2023/09/21 09:53:38;;;;;;;9.27;1.77;;;24.60;77.90;;;;;;5089333;28;20032;-81
2023/09/21 09:56:10;;;;;;;8.02;2.40;;;24.30;78.10;;;;;;5090422;28;20072;-81
2023/09/21 09:58:41;;;;;;;11.48;2.38;;;24.10;77.50;;;;;;5090428;28;20094;-81
2023/09/21 10:01:12;;;;;;;6.13;1.40;;;23.80;78.50;;;;;;5088885;28;20070;-81
2023/09/21 10:03:43;;;;;;;4.65;1.35;;;23.60;80.00;;;;;;5089804;28;20025;-81
2023/09/21 10:06:09;;;;;;;2.88;1.33;;;23.60;80.10;;;;;;5088595;28;20577;-80
2023/09/21 10:08:39;;;;;;;5.70;1.40;;;23.60;80.60;;;;;;5088373;28;20069;-82
2023/09/21 10:11:10;;;;;;;4.85;1.35;;;23.70;80.30;;;;;;5085246;28;20051;-82
2023/09/21 10:13:48;;;;;;;7.72;1.33;;;23.60;80.90;;;;;;5081431;28;20036;-81
2023/09/21 10:16:13;;;;;;;10.95;1.20;;;23.50;81.00;;;;;;5089527;28;20078;-82
2023/09/21 10:18:41;;;;;;;3.00;1.17;;;23.30;82.20;;;;;;5089635;28;20486;-81
2023/09/21 10:21:13;;;;;;;10.32;1.65;;;23.20;82.10;;;;;;5089399;28;20412;-83
2023/09/21 10:24:03;;;;;;;8.00;1.45;;;23.00;82.30;;;;;;5089566;28;20062;-83
2023/09/21 10:26:53;;;;;;;7.60;1.85;;;23.00;83.20;;;;;;5089635;28;20028;-81
2023/09/21 10:29:37;;;;;;;4.15;1.33;;;23.00;83.60;;;;;;5082974;28;20024;-82
2023/09/21 10:32:09;;;;;;;4.15;1.33;;;22.90;84.00;;;;;;5088052;28;20039;-83
2023/09/21 10:34:34;;;;;;;5.50;1.63;;;22.90;84.20;;;;;;5089371;28;20036;-83
2023/09/21 10:37:10;;;;;;;6.70;1.75;;;22.90;84.80;;;;;;5089148;28;20020;-82
2023/09/21 10:39:37;;;;;;;;;;;22.80;84.80;;;;;;5089625;28;20564;-83
2023/09/21 10:42:03;;;;;;;;;;;22.80;85.80;;;;;;5089328;28;20011;-81
2023/09/21 10:45:01;;;;;;;3.97;1.30;;;22.80;86.10;;;;;;5087585;28;20014;-83
2023/09/21 10:47:31;;;;;;;3.00;1.40;;;22.90;85.30;;;;;;5088847;28;20025;-81
2023/09/21 10:49:59;;;;;;;3.30;1.35;;;22.90;85.70;;;;;;5087554;28;20085;-81
2023/09/21 10:52:28;;;;;;;8.25;1.83;;;23.00;86.20;;;;;;5088063;28;20320;-80
2023/09/21 10:54:55;;;;;;;2.63;1.15;;;23.00;86.60;;;;;;5088096;28;20051;-81
2023/09/21 10:57:31;;;;;;;6.32;1.67;;;23.20;86.40;;;;;;5089286;28;20047;-82
2023/09/21 10:59:59;;;;;;;;;;;23.20;86.00;;;;;;5089851;28;20024;-81
2023/09/21 11:02:30;;;;;;;7.32;1.73;;;23.10;87.50;;;;;;5087725;28;19945;-83
2023/09/21 11:04:57;;;;;;;6.90;1.88;;;23.00;87.80;;;;;;5087387;28;20024;-81
2023/09/21 11:07:25;;;;;;;9.93;2.50;;;23.00;87.40;;;;;;5088676;28;20062;-81
2023/09/21 11:09:52;;;;;;;3.80;1.33;;;22.90;88.20;;;;;;5087956;28;20036;-82
2023/09/21 11:12:17;;;;;;;4.35;1.20;;;22.90;88.80;;;;;;5088185;28;20028;-82
2023/09/21 11:14:48;;;;;;;4.28;1.27;;;22.90;88.90;;;;;;5088520;28;20511;-83
2023/09/21 11:17:18;;;;;;;5.72;1.10;;;22.80;90.00;;;;;;5088145;28;20055;-81
2023/09/21 11:19:46;;;;;;;4.60;1.30;;;22.80;90.40;;;;;;5089219;28;20125;-83
2023/09/21 11:22:15;;;;;;;2.55;1.08;;;22.90;90.80;;;;;;5087452;28;20386;-81
2023/09/21 11:24:42;;;;;;;2.92;1.30;;;23.00;90.70;;;;;;5092552;28;20508;-82
2023/09/21 11:27:11;;;;;;;12.63;1.42;;;23.20;90.00;;;;;;5091089;28;20500;-82
2023/09/21 11:29:39;;;;;;;5.70;1.45;;;23.40;89.00;;;;;;5088922;28;20054;-81
2023/09/21 11:32:07;;;;;;;4.28;1.30;;;23.60;86.80;;;;;;5087870;28;20027;-83
2023/09/21 11:34:42;;;;;;;4.72;1.15;;;23.80;87.30;;;;;;5087758;28;20502;-82
2023/09/21 11:37:09;;;;;;;6.88;1.38;;;24.10;86.70;;;;;;5088950;28;20446;-82
2023/09/21 11:39:46;;;;;;;5.97;1.83;;;24.30;84.50;;;;;;5087713;28;20043;-82
2023/09/21 11:42:15;;;;;;;9.38;1.33;;;24.40;84.30;;;;;;5088775;28;20040;-81
2023/09/21 11:44:42;;;;;;;4.82;1.25;;;24.40;82.40;;;;;;5088965;28;20404;-82
2023/09/21 11:47:12;;;;;;;3.55;1.15;;;24.30;84.10;;;;;;5087487;28;20548;-81
2023/09/21 11:49:42;;;;;;;7.78;1.17;;;24.20;83.70;;;;;;5087502;28;20679;-82
2023/09/21 11:52:15;;;;;;;6.70;1.30;;;24.20;83.20;;;;;;5088607;28;20020;-83
2023/09/21 11:54:41;;;;;;;9.90;1.55;;;24.20;83.40;;;;;;5088819;28;20103;-81
2023/09/21 11:57:09;;;;;;;4.22;1.42;;;24.30;84.20;;;;;;5085326;28;20032;-82
2023/09/21 11:59:45;;;;;;;9.05;1.42;;;24.30;83.50;;;;;;5076341;28;20040;-81
2023/09/21 12:02:16;;;;;;;8.07;1.48;;;24.30;82.50;;;;;;5079942;28;20040;-83
2023/09/21 12:04:42;;;;;;;4.10;1.23;;;24.30;83.00;;;;;;5092026;28;20027;-83
2023/09/21 12:07:09;;;;;;;5.95;1.10;;;24.30;83.30;;;;;;5091011;28;20032;-82
2023/09/21 12:09:42;;;;;;;7.43;1.08;;;24.30;82.30;;;;;;5090944;28;20119;-82
2023/09/21 12:12:09;;;;;;;4.28;1.30;;;24.30;82.60;;;;;;5090886;28;20031;-82
2023/09/21 12:14:36;;;;;;;9.10;1.95;;;24.30;82.30;;;;;;5092045;28;20024;-81
2023/09/21 12:17:09;;;;;;;5.07;1.10;;;24.30;82.80;;;;;;5091561;28;20473;-82
2023/09/21 12:19:36;;;;;;;7.13;1.42;;;24.50;83.00;;;;;;5094580;28;20110;-81
2023/09/21 12:22:05;;;;;;;7.82;1.10;;;24.60;82.70;;;;;;5090434;28;20040;-82
2023/09/21 12:24:32;;;;;;;3.10;1.40;;;24.70;81.30;;;;;;5091543;28;20142;-83
2023/09/21 12:26:58;;;;;;;4.28;1.00;;;24.90;80.60;;;;;;5091654;28;20082;-83
2023/09/21 12:29:24;;;;;;;4.18;1.02;;;25.00;80.60;;;;;;5091245;28;20511;-82
2023/09/21 12:31:50;;;;;;;5.10;1.08;;;25.00;79.60;;;;;;5091525;28;20661;-81
2023/09/21 12:34:16;;;;;;;6.55;1.30;;;25.00;78.70;;;;;;5090173;28;20424;-81
2023/09/21 12:36:42;;;;;;;13.98;1.50;;;25.00;78.80;;;;;;5091216;28;20024;-82
2023/09/21 12:39:09;;;;;;;11.50;1.10;;;25.00;79.10;;;;;;5091629;28;20489;-83
2023/09/21 12:41:38;;;;;;;14.27;1.02;;;25.00;78.80;;;;;;5089824;28;20044;-82
2023/09/21 12:44:06;;;;;;;3.08;1.00;;;25.10;78.00;;;;;;5092765;28;20691;-83
2023/09/21 12:46:32;;;;;;;8.35;0.77;;;25.00;78.40;;;;;;5090214;28;20512;-81
2023/09/21 12:48:58;;;;;;;5.40;1.33;;;25.00;78.80;;;;;;5090002;28;20439;-82
2023/09/21 12:51:25;;;;;;;6.38;0.90;;;25.00;77.60;;;;;;5089743;28;20036;-81
2023/09/21 12:53:50;;;;;;;8.35;0.90;;;25.00;77.90;;;;;;5091433;28;20024;-82
2023/09/21 12:56:16;;;;;;;10.80;1.13;;;25.10;77.40;;;;;;5089762;28;20024;-82